Map

Track Data

SID SEASON NUMBER BASIN SUBBASIN NAME ISO_TIME NATURE LAT LON WMO_WIND WMO_PRES WMO_AGENCY TRACK_TYPE DIST2LAND LANDFALL IFLAG USA_AGENCY USA_ATCF_ID USA_LAT USA_LON USA_RECORD USA_STATUS USA_WIND USA_PRES USA_SSHS USA_R34_NE USA_R34_SE USA_R34_SW USA_R34_NW USA_R50_NE USA_R50_SE USA_R50_SW USA_R50_NW USA_R64_NE USA_R64_SE USA_R64_SW USA_R64_NW USA_POCI USA_ROCI USA_RMW USA_EYE TOKYO_LAT TOKYO_LON TOKYO_GRADE TOKYO_WIND TOKYO_PRES TOKYO_R50_DIR TOKYO_R50_LONG TOKYO_R50_SHORT TOKYO_R30_DIR TOKYO_R30_LONG TOKYO_R30_SHORT TOKYO_LAND CMA_LAT CMA_LON CMA_CAT CMA_WIND CMA_PRES HKO_LAT HKO_LON HKO_CAT HKO_WIND HKO_PRES NEWDELHI_LAT NEWDELHI_LON NEWDELHI_GRADE NEWDELHI_WIND NEWDELHI_PRES NEWDELHI_CI NEWDELHI_DP NEWDELHI_POCI REUNION_LAT REUNION_LON REUNION_TYPE REUNION_WIND REUNION_PRES REUNION_TNUM REUNION_CI REUNION_RMW REUNION_R34_NE REUNION_R34_SE REUNION_R34_SW REUNION_R34_NW REUNION_R50_NE REUNION_R50_SE REUNION_R50_SW REUNION_R50_NW REUNION_R64_NE REUNION_R64_SE REUNION_R64_SW REUNION_R64_NW BOM_LAT BOM_LON BOM_TYPE BOM_WIND BOM_PRES BOM_TNUM BOM_CI BOM_RMW BOM_R34_NE BOM_R34_SE BOM_R34_SW BOM_R34_NW BOM_R50_NE BOM_R50_SE BOM_R50_SW BOM_R50_NW BOM_R64_NE BOM_R64_SE BOM_R64_SW BOM_R64_NW BOM_ROCI BOM_POCI BOM_EYE BOM_POS_METHOD BOM_PRES_METHOD NADI_LAT NADI_LON NADI_CAT NADI_WIND NADI_PRES WELLINGTON_LAT WELLINGTON_LON WELLINGTON_WIND WELLINGTON_PRES DS824_LAT DS824_LON DS824_STAGE DS824_WIND DS824_PRES TD9636_LAT TD9636_LON TD9636_STAGE TD9636_WIND TD9636_PRES TD9635_LAT TD9635_LON TD9635_WIND TD9635_PRES TD9635_ROCI NEUMANN_LAT NEUMANN_LON NEUMANN_CLASS NEUMANN_WIND NEUMANN_PRES MLC_LAT MLC_LON MLC_CLASS MLC_WIND MLC_PRES USA_GUST BOM_GUST BOM_GUST_PER REUNION_GUST REUNION_GUST_PER USA_SEAHGT USA_SEARAD_NE USA_SEARAD_SE USA_SEARAD_SW USA_SEARAD_NW STORM_SPEED STORM_DIR
1938284N16273 1938 58 NA CS NOT_NAMED 1938-10-10 18:00:00 TS 16.0000 -87.5000 30 hurdat_atl main 22 22 O_____________ hurdat_atl AL071938 16.0000 -87.5000 TD 30 -1 4 326
1938284N16273 1938 58 NA CS NOT_NAMED 1938-10-10 21:00:00 TS 16.1475 -87.6000 main 33 33 P_____________ AL071938 16.1475 -87.6000 TD 32 -1 4 334
1938284N16273 1938 58 NA CS NOT_NAMED 1938-10-11 00:00:00 TS 16.4000 -87.7000 35 hurdat_atl main 67 48 O_____________ hurdat_atl AL071938 16.4000 -87.7000 TS 35 0 7 344
1938284N16273 1938 58 NA CS NOT_NAMED 1938-10-11 03:00:00 TS 16.8325 -87.8000 main 48 33 P_____________ AL071938 16.8325 -87.8000 TS 37 0 10 349
1938284N16273 1938 58 NA CS NOT_NAMED 1938-10-11 06:00:00 TS 17.4000 -87.9000 40 hurdat_atl main 33 15 O_____________ hurdat_atl AL071938 17.4000 -87.9000 TS 40 0 12 353
1938284N16273 1938 58 NA CS NOT_NAMED 1938-10-11 09:00:00 TS 18.0424 -87.9629 main 15 0 P_____________ AL071938 18.0424 -87.9629 TS 37 0 13 352
1938284N16273 1938 58 NA CS NOT_NAMED 1938-10-11 12:00:00 TS 18.7000 -88.1000 35 hurdat_atl main 10 0 O_____________ hurdat_atl AL071938 18.7000 -88.1000 TS 35 0 13 341
1938284N16273 1938 58 NA NA NOT_NAMED 1938-10-11 15:00:00 TS 19.2725 -88.4049 main 0 0 P_____________ AL071938 19.2725 -88.4049 TS 32 -1 13 329
1938284N16273 1938 58 NA NA NOT_NAMED 1938-10-11 18:00:00 TS 19.8000 -88.8000 30 hurdat_atl main 0 0 O_____________ hurdat_atl AL071938 19.8000 -88.8000 TD 30 -1 13 323
1938284N16273 1938 58 NA NA NOT_NAMED 1938-10-11 21:00:00 TS 20.3076 -89.2224 main 0 0 P_____________ AL071938 20.3076 -89.2224 TD 30 -1 13 323
1938284N16273 1938 58 NA NA NOT_NAMED 1938-10-12 00:00:00 TS 20.8000 -89.6000 30 hurdat_atl main 0 0 O_____________ hurdat_atl AL071938 20.8000 -89.6000 TD 30 -1 12 330
1938284N16273 1938 58 NA GM NOT_NAMED 1938-10-12 03:00:00 TS 21.2999 -89.8453 main 11 11 P_____________ AL071938 21.2999 -89.8453 TD 32 -1 11 340
1938284N16273 1938 58 NA GM NOT_NAMED 1938-10-12 06:00:00 TS 21.8000 -90.0000 35 hurdat_atl main 67 67 O_____________ hurdat_atl AL071938 21.8000 -90.0000 TS 35 0 10 346
1938284N16273 1938 58 NA GM NOT_NAMED 1938-10-12 09:00:00 TS 22.3000 -90.1226 main 124 124 P_____________ AL071938 22.3000 -90.1226 TS 35 0 10 349
1938284N16273 1938 58 NA GM NOT_NAMED 1938-10-12 12:00:00 TS 22.8000 -90.2000 35 hurdat_atl main 181 181 O_____________ hurdat_atl AL071938 22.8000 -90.2000 TS 35 0 10 351
1938284N16273 1938 58 NA GM NOT_NAMED 1938-10-12 15:00:00 TS 23.3000 -90.2873 main 238 238 P_____________ AL071938 23.3000 -90.2873 TS 35 0 10 355
1938284N16273 1938 58 NA GM NOT_NAMED 1938-10-12 18:00:00 TS 23.8000 -90.3000 35 hurdat_atl main 293 293 O_____________ hurdat_atl AL071938 23.8000 -90.3000 TS 35 0 11 5
1938284N16273 1938 58 NA GM NOT_NAMED 1938-10-12 21:00:00 TS 24.3450 -90.1879 main 347 347 P_____________ AL071938 24.3450 -90.1879 TS 35 0 10 15
1938284N16273 1938 58 NA GM NOT_NAMED 1938-10-13 00:00:00 TS 24.8000 -90.0000 35 hurdat_atl main 395 395 O_____________ hurdat_atl AL071938 24.8000 -90.0000 TS 35 0 8 23
1938284N16273 1938 58 NA GM NOT_NAMED 1938-10-13 03:00:00 TS 25.0673 -89.8448 main 420 417 P_____________ AL071938 25.0673 -89.8448 TS 37 0 5 42
1938284N16273 1938 58 NA GM NOT_NAMED 1938-10-13 06:00:00 TS 25.2000 -89.6000 40 hurdat_atl main 425 413 O_____________ hurdat_atl AL071938 25.2000 -89.6000 TS 40 0 6 69
1938284N16273 1938 58 NA GM NOT_NAMED 1938-10-13 09:00:00 TS 25.2876 -89.1950 main 413 413 P_____________ AL071938 25.2876 -89.1950 TS 40 0 8 83
1938284N16273 1938 58 NA GM NOT_NAMED 1938-10-13 12:00:00 TS 25.3000 -88.7000 40 hurdat_atl main 415 415 O_____________ hurdat_atl AL071938 25.3000 -88.7000 TS 40 0 9 91
1938284N16273 1938 58 NA GM NOT_NAMED 1938-10-13 15:00:00 TS 25.2650 -88.1923 main 422 413 P_____________ AL071938 25.2650 -88.1923 TS 42 0 9 96
1938284N16273 1938 58 NA GM NOT_NAMED 1938-10-13 18:00:00 TS 25.2000 -87.7000 45 hurdat_atl main 413 413 O_____________ hurdat_atl AL071938 25.2000 -87.7000 TS 45 0 8 98
1938284N16273 1938 58 NA GM NOT_NAMED 1938-10-13 21:00:00 TS 25.1497 -87.2926 main 402 398 P_____________ AL071938 25.1497 -87.2926 TS 45 0 7 98
1938284N16273 1938 58 NA GM NOT_NAMED 1938-10-14 00:00:00 TS 25.1000 -86.9000 45 hurdat_atl main 398 361 O_____________ hurdat_atl AL071938 25.1000 -86.9000 TS 45 0 8 98
1938284N16273 1938 58 NA GM NOT_NAMED 1938-10-14 03:00:00 TS 25.0424 -86.4574 main 361 327 P_____________ AL071938 25.0424 -86.4574 TS 47 0 8 97
1938284N16273 1938 58 NA GM NOT_NAMED 1938-10-14 06:00:00 TS 25.0000 -86.0000 50 hurdat_atl main 327 298 O_____________ hurdat_atl AL071938 25.0000 -86.0000 TS 50 0 9 95
1938284N16273 1938 58 NA GM NOT_NAMED 1938-10-14 09:00:00 TS 24.9702 -85.5050 main 298 280 P_____________ AL071938 24.9702 -85.5050 TS 50 0 8 90
1938284N16273 1938 58 NA GM NOT_NAMED 1938-10-14 12:00:00 TS 25.0000 -85.1000 50 hurdat_atl main 280 276 O_____________ hurdat_atl AL071938 25.0000 -85.1000 TS 50 0 6 74
1938284N16273 1938 58 NA GM NOT_NAMED 1938-10-14 15:00:00 TS 25.1273 -84.8975 main 283 283 P_____________ AL071938 25.1273 -84.8975 TS 50 0 4 42
1938284N16273 1938 58 NA GM NOT_NAMED 1938-10-14 18:00:00 TS 25.3000 -84.8000 50 hurdat_atl main 300 285 O_____________ hurdat_atl AL071938 25.3000 -84.8000 TS 50 0 4 33
1938284N16273 1938 58 NA GM NOT_NAMED 1938-10-14 21:00:00 TS 25.4500 -84.6700 main 279 265 P_____________ AL071938 25.4500 -84.6700 TS 50 0 4 31
1938284N16273 1938 58 NA GM NOT_NAMED 1938-10-15 00:00:00 TS 25.6000 -84.6000 50 996 hurdat_atl main 265 260 O_____________ hurdat_atl AL071938 25.6000 -84.6000 TS 50 996 0 3 6
1938284N16273 1938 58 NA GM NOT_NAMED 1938-10-15 03:00:00 TS 25.7575 -84.6199 main 254 254 P_____________ AL071938 25.7575 -84.6199 TS 50 0 3 344
1938284N16273 1938 58 NA GM NOT_NAMED 1938-10-15 06:00:00 TS 25.9000 -84.7000 50 hurdat_atl main 259 254 O_____________ hurdat_atl AL071938 25.9000 -84.7000 TS 50 0 3 332
1938284N16273 1938 58 NA GM NOT_NAMED 1938-10-15 09:00:00 TS 26.0225 -84.7775 main 262 256 P_____________ AL071938 26.0225 -84.7775 TS 47 0 3 318
1938284N16273 1938 58 NA GM NOT_NAMED 1938-10-15 12:00:00 TS 26.1000 -84.9000 45 hurdat_atl main 264 264 O_____________ hurdat_atl AL071938 26.1000 -84.9000 TS 45 0 3 290
1938284N16273 1938 58 NA GM NOT_NAMED 1938-10-15 15:00:00 TS 26.1149 -85.0551 main 281 281 P_____________ AL071938 26.1149 -85.0551 TS 45 0 4 270
1938284N16273 1938 58 NA GM NOT_NAMED 1938-10-15 18:00:00 TS 26.1000 -85.3000 45 hurdat_atl main 299 299 O_____________ hurdat_atl AL071938 26.1000 -85.3000 TS 45 0 5 267
1938284N16273 1938 58 NA GM NOT_NAMED 1938-10-15 21:00:00 TS 26.0920 -85.6177 main 326 326 P_____________ AL071938 26.0920 -85.6177 TS 42 0 7 270
1938284N16273 1938 58 NA GM NOT_NAMED 1938-10-16 00:00:00 TS 26.1000 -86.1000 40 hurdat_atl main 372 372 O_____________ hurdat_atl AL071938 26.1000 -86.1000 TS 40 0 11 272
1938284N16273 1938 58 NA GM NOT_NAMED 1938-10-16 03:00:00 TS 26.1353 -86.7976 main 395 345 P_____________ AL071938 26.1353 -86.7976 TS 40 0 14 274
1938284N16273 1938 58 NA GM NOT_NAMED 1938-10-16 06:00:00 TS 26.2000 -87.6000 40 hurdat_atl main 345 311 O_____________ hurdat_atl AL071938 26.2000 -87.6000 TS 40 0 14 275
1938284N16273 1938 58 NA GM NOT_NAMED 1938-10-16 09:00:00 TS 26.2620 -88.3431 main 311 290 P_____________ AL071938 26.2620 -88.3431 TS 40 0 14 278
1938284N16273 1938 58 NA GM NOT_NAMED 1938-10-16 12:00:00 TS 26.4000 -89.1000 40 hurdat_atl main 290 272 O_____________ hurdat_atl AL071938 26.4000 -89.1000 TS 40 0 15 286
1938284N16273 1938 58 NA GM NOT_NAMED 1938-10-16 15:00:00 TS 26.6624 -89.9073 main 268 234 P_____________ AL071938 26.6624 -89.9073 TS 40 0 16 293
1938284N16273 1938 58 NA GM NOT_NAMED 1938-10-16 18:00:00 TS 27.0000 -90.7000 40 hurdat_atl main 234 204 O_____________ hurdat_atl AL071938 27.0000 -90.7000 TS 40 0 15 297
1938284N16273 1938 58 NA GM NOT_NAMED 1938-10-16 21:00:00 TS 27.3420 -91.4228 main 206 189 P_____________ AL071938 27.3420 -91.4228 TS 40 0 14 299
1938284N16273 1938 58 NA GM NOT_NAMED 1938-10-17 00:00:00 TS 27.7000 -92.1000 40 hurdat_atl main 193 169 O_____________ hurdat_atl AL071938 27.7000 -92.1000 TS 40 0 14 301
1938284N16273 1938 58 NA GM NOT_NAMED 1938-10-17 03:00:00 TS 28.0421 -92.7581 main 174 150 P_____________ AL071938 28.0421 -92.7581 TS 40 0 13 301
1938284N16273 1938 58 NA GM NOT_NAMED 1938-10-17 06:00:00 TS 28.4000 -93.4000 40 hurdat_atl main 150 91 O_____________ hurdat_atl AL071938 28.4000 -93.4000 TS 40 0 14 303
1938284N16273 1938 58 NA GM NOT_NAMED 1938-10-17 09:00:00 TS 28.8214 -94.1440 main 91 22 P_____________ AL071938 28.8214 -94.1440 TS 40 0 14 305
1938284N16273 1938 58 NA GM NOT_NAMED 1938-10-17 12:00:00 TS 29.2000 -94.7000 40 1004 hurdat_atl main 22 9 O_____________ hurdat_atl AL071938 29.2000 -94.7000 TS 40 1004 0 11 310
1938284N16273 1938 58 NA GM NOT_NAMED 1938-10-17 13:00:00 TS 29.3000 -94.8000 40 1004 hurdat_atl main 9 0 O_____________ hurdat_atl AL071938 29.3000 -94.8000 L TS 40 1004 0 11 307
1938284N16273 1938 58 NA NA NOT_NAMED 1938-10-17 15:00:00 TS 29.5230 -95.1835 main 0 0 P_____________ AL071938 29.5230 -95.1835 TS 35 0 15 298
1938284N16273 1938 58 NA NA NOT_NAMED 1938-10-17 18:00:00 TS 29.9000 -96.1000 30 hurdat_atl main 0 O_____________ hurdat_atl AL071938 29.9000 -96.1000 TD 30 -1 18 295

About IBTrACS Database

This database is a web-friendly format of International Best Track Archive for Climate Stewardship (IBTrACS), a global best track data archive curated by NOAA dating back to 1842.

Updated: 2021-11-26